createdAt,value
2023-04-12T00:00:27.960Z,7.70
2023-04-12T00:01:27.951Z,5.00
2023-04-12T00:02:28.130Z,7.60
2023-04-12T00:03:28.136Z,6.60
2023-04-12T00:04:27.972Z,7.30
2023-04-12T00:05:27.872Z,6.40
2023-04-12T00:06:27.877Z,5.40
2023-04-12T00:07:27.862Z,6.30
2023-04-12T00:08:27.881Z,4.90
2023-04-12T00:09:27.835Z,6.30
2023-04-12T00:10:27.837Z,7.50
2023-04-12T00:11:27.805Z,6.10
2023-04-12T00:12:27.817Z,4.30
2023-04-12T00:13:27.820Z,6.10
2023-04-12T00:14:27.853Z,7.50
2023-04-12T00:15:27.762Z,5.40
2023-04-12T00:16:27.839Z,8.00
2023-04-12T00:17:27.768Z,7.40
2023-04-12T00:18:27.743Z,6.20
2023-04-12T00:19:27.853Z,6.90
2023-04-12T00:20:27.720Z,9.50
2023-04-12T00:21:27.671Z,5.00
2023-04-12T00:22:27.663Z,7.70
2023-04-12T00:23:27.664Z,7.60
2023-04-12T00:24:27.656Z,5.80
2023-04-12T00:25:27.671Z,6.80
2023-04-12T00:26:27.669Z,5.20
2023-04-12T00:27:27.623Z,6.90
2023-04-12T00:28:27.605Z,6.20
2023-04-12T00:29:27.571Z,5.00
2023-04-12T00:30:27.573Z,10.00
2023-04-12T00:31:27.599Z,5.20
2023-04-12T00:32:27.589Z,6.60
2023-04-12T00:33:27.531Z,6.40
2023-04-12T00:34:27.540Z,37.20
2023-04-12T00:35:27.522Z,37.80
2023-04-12T00:36:27.486Z,49.70
2023-04-12T00:37:27.472Z,46.00
2023-04-12T00:38:27.487Z,50.90
2023-04-12T00:39:27.455Z,32.20
2023-04-12T00:40:27.465Z,26.30
2023-04-12T00:41:27.434Z,20.70
2023-04-12T00:42:27.630Z,17.40
2023-04-12T00:43:27.396Z,10.30
2023-04-12T00:44:27.383Z,8.40
2023-04-12T00:45:27.425Z,10.90
2023-04-12T00:46:27.402Z,8.30
2023-04-12T00:47:27.368Z,9.60
2023-04-12T00:48:27.373Z,10.50
2023-04-12T00:49:27.333Z,11.40
2023-04-12T00:50:27.323Z,8.60
2023-04-12T00:51:27.290Z,7.80
2023-04-12T00:52:27.281Z,7.00
2023-04-12T00:53:27.257Z,7.80
2023-04-12T00:54:27.294Z,9.30
2023-04-12T00:55:27.261Z,5.70
2023-04-12T00:56:27.232Z,5.90
2023-04-12T00:57:27.223Z,5.30
2023-04-12T00:58:27.237Z,9.80
2023-04-12T00:59:27.205Z,9.80
2023-04-12T01:00:27.195Z,9.80
2023-04-12T01:01:27.185Z,7.60
2023-04-12T01:02:27.345Z,7.10
2023-04-12T01:03:27.305Z,10.20
2023-04-12T01:04:27.171Z,7.20
2023-04-12T01:05:27.156Z,9.30
2023-04-12T01:06:27.117Z,6.50
2023-04-12T01:07:27.100Z,8.00
2023-04-12T01:08:27.097Z,9.10
2023-04-12T01:09:27.082Z,8.10
2023-04-12T01:10:27.089Z,9.90
2023-04-12T01:11:27.041Z,10.40
2023-04-12T01:12:27.074Z,10.60
2023-04-12T01:13:27.015Z,14.60
2023-04-12T01:14:27.009Z,8.50
2023-04-12T01:15:27.016Z,9.80
2023-04-12T01:16:27.144Z,10.40
2023-04-12T01:17:26.979Z,13.20
2023-04-12T01:18:26.960Z,14.10
2023-04-12T01:19:26.934Z,12.60
2023-04-12T01:20:26.970Z,16.80
2023-04-12T01:21:26.954Z,14.80
2023-04-12T01:22:26.905Z,14.50
2023-04-12T01:23:26.905Z,13.30
2023-04-12T01:24:26.900Z,15.60
2023-04-12T01:25:26.892Z,14.20
2023-04-12T01:26:26.932Z,15.00
2023-04-12T01:27:26.854Z,16.80
2023-04-12T01:28:26.845Z,15.20
2023-04-12T01:29:26.804Z,13.30
2023-04-12T01:30:26.811Z,15.50
2023-04-12T01:31:26.835Z,14.60
2023-04-12T01:32:26.821Z,12.10
2023-04-12T01:33:26.805Z,11.00
2023-04-12T01:34:26.760Z,9.20
2023-04-12T01:35:26.768Z,15.20
2023-04-12T01:36:26.730Z,13.50
2023-04-12T01:37:26.705Z,12.80
2023-04-12T01:38:26.705Z,10.70
2023-04-12T01:39:26.692Z,12.00
2023-04-12T01:40:26.687Z,13.50
2023-04-12T01:41:26.664Z,15.10
2023-04-12T01:42:26.654Z,14.50
2023-04-12T01:43:26.643Z,13.90
2023-04-12T01:44:26.676Z,12.30
2023-04-12T01:45:26.641Z,12.10
2023-04-12T01:46:26.617Z,13.30
2023-04-12T01:47:26.633Z,11.00
2023-04-12T01:48:26.614Z,11.50
2023-04-12T01:49:26.592Z,12.40
2023-04-12T01:50:26.576Z,10.50
2023-04-12T01:51:26.559Z,10.90
2023-04-12T01:52:26.547Z,14.70
2023-04-12T01:53:26.519Z,10.70
2023-04-12T01:54:26.514Z,11.10
2023-04-12T01:55:26.532Z,12.70
2023-04-12T01:56:26.493Z,8.40
2023-04-12T01:57:26.473Z,8.30
2023-04-12T01:58:26.454Z,9.10
2023-04-12T01:59:26.476Z,9.50
2023-04-12T02:00:26.458Z,16.20
2023-04-12T02:01:26.471Z,8.40
2023-04-12T02:02:26.501Z,9.20
2023-04-12T02:03:26.464Z,9.10
2023-04-12T02:04:26.394Z,15.20
2023-04-12T02:05:26.385Z,10.10
2023-04-12T02:06:26.373Z,10.80
2023-04-12T02:07:26.350Z,17.70
2023-04-12T02:08:26.348Z,12.40
2023-04-12T02:09:26.326Z,14.40
2023-04-12T02:10:26.306Z,10.20
2023-04-12T02:11:26.299Z,9.50
2023-04-12T02:12:26.298Z,6.30
2023-04-12T02:13:26.267Z,14.10
2023-04-12T02:14:26.250Z,9.50
2023-04-12T02:15:26.264Z,15.00
2023-04-12T02:16:26.271Z,12.20
2023-04-12T02:17:26.269Z,11.80
2023-04-12T02:18:26.192Z,13.00
2023-04-12T02:19:26.219Z,9.50
2023-04-12T02:20:26.163Z,11.30
2023-04-12T02:21:26.180Z,10.10
2023-04-12T02:22:26.147Z,14.20
2023-04-12T02:23:26.159Z,13.20
2023-04-12T02:24:26.137Z,17.70
2023-04-12T02:25:26.139Z,12.30
2023-04-12T02:26:26.121Z,12.70
2023-04-12T02:27:26.091Z,13.00
2023-04-12T02:28:26.094Z,13.10
2023-04-12T02:29:26.062Z,11.50
2023-04-12T02:30:26.090Z,12.70
2023-04-12T02:31:26.035Z,10.50
2023-04-12T02:32:26.068Z,10.60
2023-04-12T02:33:26.015Z,18.70
2023-04-12T02:34:26.026Z,11.30
2023-04-12T02:35:26.044Z,11.50
2023-04-12T02:36:25.969Z,10.80
2023-04-12T02:37:25.981Z,10.70
2023-04-12T02:38:25.944Z,10.40
2023-04-12T02:39:25.977Z,10.60
2023-04-12T02:40:25.956Z,17.00
2023-04-12T02:41:25.925Z,11.60
2023-04-12T02:42:25.914Z,15.40
2023-04-12T02:43:25.904Z,10.40
2023-04-12T02:44:25.885Z,12.30
2023-04-12T02:45:25.878Z,11.40
2023-04-12T02:46:25.920Z,12.60
2023-04-12T02:47:25.866Z,10.30
2023-04-12T02:48:25.848Z,11.80
2023-04-12T02:49:25.814Z,11.10
2023-04-12T02:50:25.794Z,11.10
2023-04-12T02:51:25.794Z,13.60
2023-04-12T02:52:25.799Z,9.80
2023-04-12T02:53:25.755Z,10.70
2023-04-12T02:54:25.760Z,11.50
2023-04-12T02:55:25.794Z,9.60
2023-04-12T02:56:25.733Z,12.30
2023-04-12T02:57:25.739Z,14.10
2023-04-12T02:58:25.711Z,11.80
2023-04-12T02:59:25.690Z,15.70
2023-04-12T03:00:25.661Z,13.10
2023-04-12T03:01:25.685Z,12.10
2023-04-12T03:02:25.710Z,9.90
2023-04-12T03:03:25.777Z,11.00
2023-04-12T03:04:25.832Z,10.50
2023-04-12T03:05:25.629Z,11.00
2023-04-12T03:06:25.629Z,10.70
2023-04-12T03:07:25.586Z,10.80
2023-04-12T03:08:25.580Z,12.00
2023-04-12T03:09:25.560Z,13.70
2023-04-12T03:10:25.531Z,11.30
2023-04-12T03:11:25.556Z,14.30
2023-04-12T03:12:25.512Z,10.50
2023-04-12T03:13:25.524Z,11.30
2023-04-12T03:14:25.501Z,12.90
2023-04-12T03:15:25.526Z,11.60
2023-04-12T03:16:25.457Z,11.70
2023-04-12T03:17:25.487Z,15.90
2023-04-12T03:18:25.454Z,14.00
2023-04-12T03:19:25.430Z,19.60
2023-04-12T03:20:25.419Z,14.70
2023-04-12T03:21:25.435Z,15.90
2023-04-12T03:22:25.385Z,17.60
2023-04-12T03:23:25.409Z,20.00
2023-04-12T03:24:25.368Z,15.60
2023-04-12T03:25:25.347Z,17.20
2023-04-12T03:26:25.362Z,17.50
2023-04-12T03:27:25.337Z,16.40
2023-04-12T03:28:25.303Z,15.40
2023-04-12T03:29:25.327Z,15.50
2023-04-12T03:30:25.277Z,14.70
2023-04-12T03:31:25.376Z,14.20
2023-04-12T03:32:25.285Z,15.90
2023-04-12T03:33:25.271Z,17.40
2023-04-12T03:34:25.260Z,16.70
2023-04-12T03:35:25.253Z,13.70
2023-04-12T03:36:25.240Z,17.60
2023-04-12T03:37:25.234Z,12.70
2023-04-12T03:38:25.186Z,14.00
2023-04-12T03:39:25.177Z,15.20
2023-04-12T03:40:25.171Z,13.60
2023-04-12T03:41:25.150Z,15.10
2023-04-12T03:42:32.876Z,12.90
2023-04-12T03:43:25.168Z,18.20
2023-04-12T03:44:25.100Z,12.40
2023-04-12T03:45:25.122Z,16.10
2023-04-12T03:46:25.147Z,13.50
2023-04-12T03:47:25.161Z,14.00
2023-04-12T03:48:25.059Z,15.20
2023-04-12T03:49:25.056Z,15.00
2023-04-12T03:50:25.059Z,16.30
2023-04-12T03:51:25.017Z,13.40
2023-04-12T03:52:25.018Z,17.50
2023-04-12T03:53:24.998Z,17.30
2023-04-12T03:54:24.993Z,18.40
2023-04-12T03:55:24.973Z,12.90
2023-04-12T03:56:24.974Z,22.10
2023-04-12T03:57:24.958Z,17.30
2023-04-12T03:58:24.947Z,15.90
2023-04-12T03:59:24.944Z,18.00
2023-04-12T04:00:24.923Z,17.30
2023-04-12T04:01:24.913Z,14.70
2023-04-12T04:02:25.071Z,16.40
2023-04-12T04:03:24.922Z,16.20
2023-04-12T04:04:24.984Z,16.00
2023-04-12T04:05:24.869Z,26.50
2023-04-12T04:06:24.851Z,17.90
2023-04-12T04:07:24.886Z,19.70
2023-04-12T04:08:24.823Z,13.60
2023-04-12T04:09:24.827Z,16.40
2023-04-12T04:10:24.836Z,17.90
2023-04-12T04:11:24.796Z,15.60
2023-04-12T04:12:24.769Z,16.00
2023-04-12T04:13:24.771Z,16.50
2023-04-12T04:14:24.738Z,12.80
2023-04-12T04:15:24.733Z,16.20
2023-04-12T04:16:24.773Z,12.30
2023-04-12T04:17:24.754Z,15.00
2023-04-12T04:18:24.684Z,14.00
2023-04-12T04:19:24.687Z,16.20
2023-04-12T04:20:25.954Z,15.50
2023-04-12T04:21:24.657Z,15.60
2023-04-12T04:22:24.686Z,18.00
2023-04-12T04:23:24.625Z,15.00
2023-04-12T04:24:24.596Z,15.80
2023-04-12T04:25:24.608Z,15.40
2023-04-12T04:26:24.600Z,13.00
2023-04-12T04:27:24.585Z,17.30
2023-04-12T04:28:24.579Z,14.50
2023-04-12T04:29:24.562Z,17.90
2023-04-12T04:30:24.527Z,14.20
2023-04-12T04:31:24.599Z,19.50
2023-04-12T04:32:24.601Z,19.70
2023-04-12T04:33:24.507Z,18.50
2023-04-12T04:34:24.494Z,18.10
2023-04-12T04:35:24.519Z,22.90
2023-04-12T04:36:24.478Z,21.60
2023-04-12T04:37:24.490Z,21.10
2023-04-12T04:38:24.451Z,20.10
2023-04-12T04:39:24.442Z,21.00
2023-04-12T04:40:24.403Z,22.20
2023-04-12T04:41:24.441Z,17.90
2023-04-12T04:42:24.413Z,25.90
2023-04-12T04:43:24.424Z,18.40
2023-04-12T04:44:24.356Z,20.10
2023-04-12T04:45:24.391Z,18.70
2023-04-12T04:46:24.374Z,20.90
2023-04-12T04:47:24.366Z,22.20
2023-04-12T04:48:24.302Z,24.10
2023-04-12T04:49:24.321Z,20.80
2023-04-12T04:50:24.298Z,19.00
2023-04-12T04:51:24.285Z,21.90
2023-04-12T04:52:24.267Z,27.20
2023-04-12T04:53:24.262Z,21.10
2023-04-12T04:54:24.251Z,21.20
2023-04-12T04:55:24.218Z,21.90
2023-04-12T04:56:24.236Z,24.20
2023-04-12T04:57:24.213Z,22.70
2023-04-12T04:58:24.202Z,23.70
2023-04-12T04:59:24.174Z,20.70
2023-04-12T05:00:24.170Z,26.00
2023-04-12T05:01:24.290Z,26.20
2023-04-12T05:02:24.193Z,18.20
2023-04-12T05:03:24.197Z,23.00
2023-04-12T05:04:24.162Z,29.10
2023-04-12T05:05:24.116Z,19.70
2023-04-12T05:06:24.135Z,19.90
2023-04-12T05:07:24.106Z,19.10
2023-04-12T05:08:24.098Z,21.80
2023-04-12T05:09:24.041Z,18.10
2023-04-12T05:10:24.073Z,21.30
2023-04-12T05:11:24.010Z,24.50
2023-04-12T05:12:24.022Z,24.90
2023-04-12T05:13:23.983Z,20.30
2023-04-12T05:14:23.984Z,24.40
2023-04-12T05:15:23.951Z,16.90
2023-04-12T05:16:24.115Z,22.20
2023-04-12T05:17:23.980Z,18.70
2023-04-12T05:18:24.068Z,27.50
2023-04-12T05:19:23.897Z,24.90
2023-04-12T05:20:23.907Z,20.00
2023-04-12T05:21:24.545Z,17.70
2023-04-12T05:22:23.897Z,18.00
2023-04-12T05:23:23.872Z,19.40
2023-04-12T05:24:23.874Z,17.30
2023-04-12T05:25:23.857Z,17.40
2023-04-12T05:26:23.806Z,18.10
2023-04-12T05:27:23.798Z,18.30
2023-04-12T05:28:23.842Z,17.10
2023-04-12T05:29:23.790Z,15.60
2023-04-12T05:30:23.758Z,15.40
2023-04-12T05:31:24.331Z,14.90
2023-04-12T05:32:23.761Z,14.20
2023-04-12T05:33:23.744Z,14.40
2023-04-12T05:34:23.732Z,14.10
2023-04-12T05:35:23.734Z,12.90
2023-04-12T05:36:23.690Z,12.30
2023-04-12T05:37:23.698Z,12.20
2023-04-12T05:38:23.688Z,9.10
2023-04-12T05:39:23.688Z,12.10
2023-04-12T05:40:23.650Z,10.10
2023-04-12T05:41:23.638Z,9.40
2023-04-12T05:42:23.623Z,11.00
2023-04-12T05:43:23.615Z,11.50
2023-04-12T05:44:23.619Z,10.30
2023-04-12T05:45:23.605Z,8.20
2023-04-12T05:46:23.621Z,14.50
2023-04-12T05:47:23.585Z,9.10
2023-04-12T05:48:23.542Z,10.40
2023-04-12T05:49:23.557Z,5.90
2023-04-12T05:50:23.562Z,8.50
2023-04-12T05:51:37.740Z,8.30
2023-04-12T05:52:23.497Z,9.00
2023-04-12T05:53:23.501Z,7.70
2023-04-12T05:54:23.476Z,8.40
2023-04-12T05:55:23.460Z,13.60
2023-04-12T05:56:23.472Z,6.20
2023-04-12T05:57:23.433Z,7.70
2023-04-12T05:58:23.404Z,10.70
2023-04-12T05:59:23.387Z,10.50
2023-04-12T06:00:23.468Z,12.30
2023-04-12T06:01:23.393Z,9.80
2023-04-12T06:02:23.496Z,12.10
2023-04-12T06:03:23.466Z,12.00
2023-04-12T06:04:26.352Z,12.60
2023-04-12T06:05:23.378Z,12.40
2023-04-12T06:06:23.320Z,7.60
2023-04-12T06:07:23.283Z,14.30
2023-04-12T06:08:23.284Z,8.60
2023-04-12T06:09:23.278Z,12.60
2023-04-12T06:10:23.247Z,12.80
2023-04-12T06:11:23.249Z,14.10
2023-04-12T06:12:23.239Z,8.40
2023-04-12T06:13:23.194Z,17.40
2023-04-12T06:14:23.194Z,12.40
2023-04-12T06:15:23.194Z,8.40
2023-04-12T06:16:23.243Z,8.20
2023-04-12T06:17:23.182Z,9.90
2023-04-12T06:18:23.153Z,11.50
2023-04-12T06:19:23.138Z,11.20
2023-04-12T06:20:23.133Z,8.70
2023-04-12T06:21:23.121Z,7.10
2023-04-12T06:22:23.099Z,10.60
2023-04-12T06:23:23.087Z,11.10
2023-04-12T06:24:23.086Z,7.60
2023-04-12T06:25:23.163Z,8.80
2023-04-12T06:26:23.044Z,11.10
2023-04-12T06:27:23.049Z,8.60
2023-04-12T06:28:23.005Z,8.10
2023-04-12T06:29:23.048Z,8.50
2023-04-12T06:30:23.023Z,10.30
2023-04-12T06:31:23.045Z,9.50
2023-04-12T06:32:23.020Z,14.50
2023-04-12T06:33:22.942Z,11.00
2023-04-12T06:34:22.951Z,12.90
2023-04-12T06:35:22.932Z,9.40
2023-04-12T06:36:22.922Z,10.10
2023-04-12T06:37:22.897Z,14.30
2023-04-12T06:38:22.918Z,11.50
2023-04-12T06:39:22.891Z,10.90
2023-04-12T06:40:22.875Z,11.90
2023-04-12T06:41:22.833Z,9.60
2023-04-12T06:42:22.831Z,10.90
2023-04-12T06:43:22.874Z,16.80
2023-04-12T06:44:22.815Z,9.00
2023-04-12T06:45:22.794Z,10.40
2023-04-12T06:46:22.808Z,11.20
2023-04-12T06:47:22.932Z,8.30
2023-04-12T06:48:22.747Z,9.90
2023-04-12T06:49:22.746Z,5.60
2023-04-12T06:50:22.719Z,10.90
2023-04-12T06:51:22.705Z,8.10
2023-04-12T06:52:22.687Z,7.70
2023-04-12T06:53:22.673Z,8.20
2023-04-12T06:54:22.693Z,9.70
2023-04-12T06:55:22.656Z,8.00
2023-04-12T06:56:22.667Z,11.90
2023-04-12T06:57:22.640Z,11.20
2023-04-12T06:58:22.634Z,8.60
2023-04-12T06:59:22.613Z,8.60
2023-04-12T07:00:22.613Z,12.90
2023-04-12T07:01:22.648Z,7.90
2023-04-12T07:02:22.651Z,6.00
2023-04-12T07:03:22.656Z,8.50
2023-04-12T07:04:22.661Z,7.40
2023-04-12T07:05:22.535Z,7.60
2023-04-12T07:06:25.679Z,7.30
2023-04-12T07:07:22.494Z,7.10
2023-04-12T07:08:22.478Z,13.70
2023-04-12T07:09:22.476Z,14.80
2023-04-12T07:10:22.481Z,9.40
2023-04-12T07:11:23.076Z,5.10
2023-04-12T07:12:22.447Z,5.90
2023-04-12T07:13:22.432Z,6.00
2023-04-12T07:14:22.462Z,7.90
2023-04-12T07:15:22.435Z,9.80
2023-04-12T07:16:22.544Z,5.90
2023-04-12T07:17:22.390Z,5.80
2023-04-12T07:18:22.389Z,6.00
2023-04-12T07:19:22.366Z,7.10
2023-04-12T07:20:22.340Z,5.70
2023-04-12T07:21:22.335Z,7.00
2023-04-12T07:22:22.332Z,4.70
2023-04-12T07:23:22.302Z,5.10
2023-04-12T07:24:22.298Z,6.00
2023-04-12T07:25:22.287Z,6.10
2023-04-12T07:26:22.314Z,6.20
2023-04-12T07:27:22.252Z,5.70
2023-04-12T07:28:22.250Z,6.30
2023-04-12T07:29:22.227Z,4.00
2023-04-12T07:30:22.221Z,4.20
2023-04-12T07:31:22.201Z,7.20
2023-04-12T07:32:22.277Z,6.10
2023-04-12T07:33:22.267Z,2.90
2023-04-12T07:34:22.321Z,4.40
2023-04-12T07:35:22.132Z,8.20
2023-04-12T07:36:22.199Z,5.60
2023-04-12T07:37:22.126Z,11.40
2023-04-12T07:38:22.135Z,5.20
2023-04-12T07:39:22.133Z,6.50
2023-04-12T07:40:22.068Z,7.40
2023-04-12T07:41:22.057Z,5.60
2023-04-12T07:42:22.077Z,5.60
2023-04-12T07:43:22.053Z,6.40
2023-04-12T07:44:22.044Z,3.30
2023-04-12T07:45:22.016Z,3.60
2023-04-12T07:46:22.061Z,5.90
2023-04-12T07:47:22.009Z,3.30
2023-04-12T07:48:21.994Z,5.40
2023-04-12T07:49:21.965Z,3.30
2023-04-12T07:50:21.952Z,3.30
2023-04-12T07:51:21.920Z,3.20
2023-04-12T07:52:21.924Z,4.00
2023-04-12T07:53:21.919Z,3.40
2023-04-12T07:54:22.396Z,2.00
2023-04-12T07:55:21.888Z,4.70
2023-04-12T07:56:21.862Z,3.70
2023-04-12T07:57:21.870Z,3.80
2023-04-12T07:58:21.830Z,5.50
2023-04-12T07:59:21.823Z,5.10
2023-04-12T08:00:21.922Z,4.10
2023-04-12T08:01:21.803Z,5.30
2023-04-12T08:02:21.864Z,4.30
2023-04-12T08:03:21.948Z,3.70
2023-04-12T08:04:21.953Z,3.80
2023-04-12T08:05:21.802Z,2.00
2023-04-12T08:06:21.758Z,2.30
2023-04-12T08:07:21.710Z,3.10
2023-04-12T08:08:21.698Z,4.40
2023-04-12T08:09:21.686Z,5.00
2023-04-12T08:10:21.747Z,3.70
2023-04-12T08:11:21.657Z,1.80
2023-04-12T08:12:21.675Z,3.90
2023-04-12T08:13:21.654Z,2.60
2023-04-12T08:14:21.623Z,3.20
2023-04-12T08:15:21.603Z,4.30
2023-04-12T08:16:21.784Z,4.60
2023-04-12T08:17:21.661Z,7.00
2023-04-12T08:18:21.592Z,7.90
2023-04-12T08:19:21.568Z,4.10
2023-04-12T08:20:21.626Z,4.60
2023-04-12T08:21:21.557Z,2.80
2023-04-12T08:22:21.544Z,5.00
2023-04-12T08:23:21.505Z,1.80
2023-04-12T08:24:21.491Z,3.10
2023-04-12T08:25:21.512Z,4.00
2023-04-12T08:26:21.506Z,3.40
2023-04-12T08:27:21.491Z,2.30
2023-04-12T08:28:21.464Z,4.70
2023-04-12T08:29:21.428Z,2.80
2023-04-12T08:30:21.415Z,2.40
2023-04-12T08:31:21.442Z,2.40
2023-04-12T08:32:21.437Z,3.90
2023-04-12T08:33:21.378Z,2.40
2023-04-12T08:34:21.359Z,3.10
2023-04-12T08:35:21.346Z,2.70
2023-04-12T08:36:21.330Z,2.40
2023-04-12T08:37:21.325Z,3.30
2023-04-12T08:38:30.679Z,2.00
2023-04-12T08:39:21.330Z,3.80
2023-04-12T08:40:21.323Z,4.40
2023-04-12T08:41:21.282Z,3.10
2023-04-12T08:42:21.273Z,2.10
2023-04-12T08:43:21.251Z,4.60
2023-04-12T08:44:21.277Z,2.50
2023-04-12T08:45:21.230Z,4.00
2023-04-12T08:46:21.243Z,2.80
2023-04-12T08:47:21.220Z,6.80
2023-04-12T08:48:21.199Z,4.20
2023-04-12T08:49:21.166Z,4.20
2023-04-12T08:50:21.167Z,3.30
2023-04-12T08:51:21.180Z,2.70
2023-04-12T08:52:21.165Z,2.90
2023-04-12T08:53:21.129Z,3.10
2023-04-12T08:54:21.106Z,4.30
2023-04-12T08:55:21.097Z,4.70
2023-04-12T08:56:21.078Z,3.20
2023-04-12T08:57:21.084Z,3.80
2023-04-12T08:58:21.092Z,3.00
2023-04-12T08:59:21.056Z,2.30
2023-04-12T09:00:21.097Z,5.60
2023-04-12T09:01:21.223Z,2.70
2023-04-12T09:02:21.160Z,3.10
2023-04-12T09:03:21.176Z,2.50
2023-04-12T09:04:21.024Z,2.70
2023-04-12T09:05:21.090Z,3.50
2023-04-12T09:06:20.971Z,2.10
2023-04-12T09:07:21.013Z,7.60
2023-04-12T09:08:20.923Z,5.10
2023-04-12T09:09:20.937Z,3.50
2023-04-12T09:10:20.920Z,3.90
2023-04-12T09:11:20.895Z,1.50
2023-04-12T09:12:20.916Z,4.40
2023-04-12T09:13:20.891Z,3.30
2023-04-12T09:14:20.830Z,0.60
2023-04-12T09:15:20.857Z,2.30
2023-04-12T09:16:20.891Z,2.90
2023-04-12T09:17:20.857Z,2.10
2023-04-12T09:18:20.870Z,4.20
2023-04-12T09:19:20.782Z,2.40
2023-04-12T09:20:20.831Z,2.60
2023-04-12T09:21:20.783Z,3.50
2023-04-12T09:22:20.768Z,4.10
2023-04-12T09:23:20.791Z,3.60
2023-04-12T09:24:20.750Z,3.40
2023-04-12T09:25:20.744Z,6.50
2023-04-12T09:26:20.721Z,5.60
2023-04-12T09:27:20.725Z,4.70
2023-04-12T09:28:20.673Z,3.20
2023-04-12T09:29:20.632Z,4.60
2023-04-12T09:30:20.726Z,2.40
2023-04-12T09:31:20.750Z,3.60
2023-04-12T09:32:20.772Z,5.20
2023-04-12T09:33:20.629Z,2.80
2023-04-12T09:34:20.618Z,4.30
2023-04-12T09:35:20.618Z,4.40
2023-04-12T09:36:20.679Z,6.50
2023-04-12T09:37:20.552Z,5.40
2023-04-12T09:38:20.563Z,4.70
2023-04-12T09:39:20.542Z,4.80
2023-04-12T09:40:20.533Z,6.70
2023-04-12T09:41:23.503Z,12.10
2023-04-12T09:43:20.461Z,8.50
2023-04-12T09:44:20.540Z,9.50
2023-04-12T09:45:20.502Z,8.10
2023-04-12T09:46:20.505Z,7.70
2023-04-12T09:47:20.496Z,2.70
2023-04-12T09:48:20.411Z,1.90
2023-04-12T09:49:20.377Z,6.40
2023-04-12T09:50:20.383Z,2.50
2023-04-12T09:51:20.400Z,2.80
2023-04-12T09:52:20.377Z,2.90
2023-04-12T09:53:20.382Z,3.50
2023-04-12T09:54:20.309Z,2.60
2023-04-12T09:55:20.350Z,3.30
2023-04-12T09:56:20.324Z,2.80
2023-04-12T09:57:20.285Z,3.10
2023-04-12T09:58:20.261Z,2.90
2023-04-12T09:59:20.300Z,4.00
2023-04-12T10:00:20.457Z,3.40
2023-04-12T10:01:20.309Z,2.40
2023-04-12T10:02:20.287Z,2.90
2023-04-12T10:03:20.357Z,2.80
2023-04-12T10:04:20.418Z,3.30
2023-04-12T10:05:20.294Z,5.80
2023-04-12T10:06:20.242Z,2.50
2023-04-12T10:07:20.221Z,2.90
2023-04-12T10:08:20.177Z,3.10
2023-04-12T10:09:20.158Z,3.40
2023-04-12T10:10:20.236Z,4.30
2023-04-12T10:11:20.097Z,2.90
2023-04-12T10:12:20.108Z,2.90
2023-04-12T10:13:20.094Z,2.40
2023-04-12T10:14:20.073Z,2.80
2023-04-12T10:15:20.077Z,3.60
2023-04-12T10:16:20.104Z,2.50
2023-04-12T10:17:20.034Z,4.00
2023-04-12T10:18:20.032Z,4.00
2023-04-12T10:19:20.076Z,2.40
2023-04-12T10:20:19.983Z,3.30
2023-04-12T10:21:19.964Z,3.30
2023-04-12T10:22:19.938Z,6.60
2023-04-12T10:23:19.956Z,3.70
2023-04-12T10:24:19.937Z,2.60
2023-04-12T10:25:19.968Z,2.80
2023-04-12T10:26:19.918Z,2.60
2023-04-12T10:27:19.883Z,2.50
2023-04-12T10:28:19.914Z,3.70
2023-04-12T10:29:19.922Z,3.50
2023-04-12T10:30:19.879Z,3.80
2023-04-12T10:31:19.980Z,3.80
2023-04-12T10:32:19.822Z,2.90
2023-04-12T10:33:19.864Z,2.80
2023-04-12T10:34:19.820Z,2.20
2023-04-12T10:35:19.847Z,4.40
2023-04-12T10:36:19.816Z,3.30
2023-04-12T10:37:19.796Z,3.60
2023-04-12T10:38:19.772Z,2.20
2023-04-12T10:39:19.787Z,3.70
2023-04-12T10:40:19.781Z,3.00
2023-04-12T10:41:19.728Z,2.90
2023-04-12T10:42:19.755Z,7.80
2023-04-12T10:43:19.743Z,2.00
2023-04-12T10:44:19.707Z,2.70
2023-04-12T10:45:19.707Z,5.10
2023-04-12T10:46:19.687Z,3.60
2023-04-12T10:47:19.732Z,1.90
2023-04-12T10:48:19.724Z,4.10
2023-04-12T10:49:19.608Z,2.40
2023-04-12T10:50:19.610Z,2.40
2023-04-12T10:51:20.522Z,2.40
2023-04-12T10:52:19.577Z,3.80
2023-04-12T10:53:19.559Z,3.40
2023-04-12T10:54:19.558Z,5.40
2023-04-12T10:55:19.582Z,3.10
2023-04-12T10:56:19.549Z,4.90
2023-04-12T10:57:19.533Z,4.00
2023-04-12T10:58:19.499Z,2.10
2023-04-12T10:59:19.483Z,5.70
2023-04-12T11:00:19.606Z,3.40
2023-04-12T11:01:19.663Z,13.40
2023-04-12T11:02:19.527Z,4.40
2023-04-12T11:03:19.571Z,3.50
2023-04-12T11:04:19.631Z,4.00
2023-04-12T11:05:19.501Z,2.70
2023-04-12T11:06:26.488Z,2.80
2023-04-12T11:07:19.450Z,2.90
2023-04-12T11:08:19.380Z,4.30
2023-04-12T11:09:19.517Z,4.20
2023-04-12T11:10:19.343Z,1.50
2023-04-12T11:11:19.352Z,2.40
2023-04-12T11:12:19.330Z,3.70
2023-04-12T11:13:19.356Z,3.70
2023-04-12T11:14:19.354Z,3.50
2023-04-12T11:15:19.357Z,3.70
2023-04-12T11:16:19.311Z,2.90
2023-04-12T11:17:19.320Z,6.00
2023-04-12T11:18:19.316Z,4.60
2023-04-12T11:19:19.286Z,4.20
2023-04-12T11:20:19.263Z,2.00
2023-04-12T11:21:19.311Z,3.80
2023-04-12T11:22:19.225Z,1.90
2023-04-12T11:23:19.182Z,4.00
2023-04-12T11:24:19.216Z,4.20
2023-04-12T11:25:19.224Z,4.90
2023-04-12T11:26:19.175Z,3.10
2023-04-12T11:27:19.131Z,5.50
2023-04-12T11:28:28.566Z,3.10
2023-04-12T11:29:19.101Z,3.80
2023-04-12T11:30:19.095Z,4.50
2023-04-12T11:31:19.137Z,3.70
2023-04-12T11:32:19.174Z,3.30
2023-04-12T11:33:19.118Z,4.10
2023-04-12T11:34:19.113Z,4.40
2023-04-12T11:35:19.033Z,2.90
2023-04-12T11:36:19.027Z,2.80
2023-04-12T11:37:19.041Z,2.30
2023-04-12T11:38:19.016Z,4.60
2023-04-12T11:39:19.008Z,9.00
2023-04-12T11:40:18.963Z,4.70
2023-04-12T11:41:18.941Z,4.60
2023-04-12T11:42:18.974Z,3.60
2023-04-12T11:43:18.952Z,3.50
2023-04-12T11:44:18.957Z,1.80
2023-04-12T11:45:18.911Z,4.10
2023-04-12T11:46:18.948Z,2.00
2023-04-12T11:47:18.884Z,2.60
2023-04-12T11:48:18.917Z,2.70
2023-04-12T11:49:18.882Z,2.50
2023-04-12T11:50:18.825Z,3.60
2023-04-12T11:51:18.849Z,4.50
2023-04-12T11:52:18.831Z,2.20
2023-04-12T11:53:18.852Z,3.40
2023-04-12T11:54:18.791Z,1.60
2023-04-12T11:55:18.779Z,2.60
2023-04-12T11:56:18.809Z,4.10
2023-04-12T11:57:18.798Z,4.10
2023-04-12T11:58:18.730Z,3.40
2023-04-12T11:59:18.726Z,2.50
2023-04-12T12:00:18.749Z,2.90
2023-04-12T12:01:18.768Z,5.10
2023-04-12T12:02:23.282Z,3.00
2023-04-12T12:03:18.801Z,5.50
2023-04-12T12:04:18.823Z,3.10
2023-04-12T12:05:18.739Z,4.40
2023-04-12T12:06:19.083Z,5.80
2023-04-12T12:07:19.236Z,1.90
2023-04-12T12:08:18.616Z,3.90
2023-04-12T12:09:18.601Z,2.90
2023-04-12T12:10:32.541Z,3.40
2023-04-12T12:11:18.609Z,4.20
2023-04-12T12:12:18.677Z,3.40
2023-04-12T12:13:18.633Z,3.10
2023-04-12T12:14:18.521Z,2.20
2023-04-12T12:15:18.552Z,1.50
2023-04-12T12:16:18.621Z,3.10
2023-04-12T12:17:18.512Z,2.30
2023-04-12T12:18:18.503Z,3.80
2023-04-12T12:19:18.525Z,4.00
2023-04-12T12:20:18.471Z,3.00
2023-04-12T12:21:18.454Z,3.30
2023-04-12T12:22:18.443Z,3.50
2023-04-12T12:23:18.453Z,4.40
2023-04-12T12:24:18.424Z,8.70
2023-04-12T12:25:18.415Z,2.30
2023-04-12T12:27:07.641Z,3.70
2023-04-12T12:27:18.407Z,4.80
2023-04-12T12:28:18.435Z,5.20
2023-04-12T12:29:18.388Z,3.70
2023-04-12T12:30:18.375Z,2.20
2023-04-12T12:31:18.371Z,4.20
2023-04-12T12:32:18.356Z,2.00
2023-04-12T12:33:18.366Z,5.00
2023-04-12T12:34:18.292Z,1.40
2023-04-12T12:35:18.277Z,2.70
2023-04-12T12:36:18.307Z,3.80
2023-04-12T12:37:18.259Z,3.60
2023-04-12T12:38:18.211Z,4.70
2023-04-12T12:39:18.229Z,1.90
2023-04-12T12:40:18.242Z,6.00
2023-04-12T12:41:18.225Z,3.50
2023-04-12T12:42:18.178Z,3.50
2023-04-12T12:43:18.231Z,2.90
2023-04-12T12:44:18.182Z,2.60
2023-04-12T12:45:18.134Z,5.10
2023-04-12T12:46:18.181Z,7.70
2023-04-12T12:47:18.161Z,5.50
2023-04-12T12:48:18.237Z,3.40
2023-04-12T12:49:18.094Z,2.00
2023-04-12T12:50:18.081Z,1.10
2023-04-12T12:51:18.057Z,4.40
2023-04-12T12:52:18.163Z,3.00
2023-04-12T12:53:18.057Z,3.90
2023-04-12T12:54:32.133Z,3.20
2023-04-12T12:55:18.018Z,1.80
2023-04-12T12:56:18.016Z,1.90
2023-04-12T12:57:18.129Z,5.10
2023-04-12T12:58:17.986Z,1.70
2023-04-12T12:59:17.962Z,3.10
2023-04-12T13:00:18.015Z,3.30
2023-04-12T13:01:17.919Z,4.40
2023-04-12T13:02:18.004Z,3.00
2023-04-12T13:03:18.153Z,3.00
2023-04-12T13:04:17.950Z,1.70
2023-04-12T13:05:17.943Z,5.00
2023-04-12T13:06:17.864Z,1.70
2023-04-12T13:07:17.854Z,3.80
2023-04-12T13:08:17.821Z,2.70
2023-04-12T13:09:17.853Z,1.90